Decoded Metar for KBKL (CLEVELAND in OH, USA) (IATA:BKL) | Meteo·Mobile Aviation Weather
aviador You're here:

KBKL Decoded Metar

CLEVELAND in OH, USA
Report Time2019-02-16 00:53:00
UTC Time2019-02-16 01:21:18
Flight Rules vfr VFR
Wind260° at 17 kt
W.Decomp.*RWY 24: 15.1 kt HW 7.7 kt RCW
W.Rank260° ranks 17
Current wind is above 260° avg. (11.3)
Visibility9999 m
Phenomena:N/A
Clouds:Few 025 Hf
Expected CloudBase > 2,000 ft AGL from Temp-Dew spread
CeilingNone
Temp-2°C (ISA -16)
Dew Point-7°C (69% RH)
AAT-10.9°C
QNH1012 hPa
Density Alt-1,247 ft
Elevation604 ft
Report Wrong Elevation
Raw Report
KBKL 160053Z 26017KT 10SM FEW025 M02/M07 A2988 RMK AO2 SLP125
T10171072=

Extra information for KBKL:More info

Metar Taf Metar & Taf Last 4 Metars F.Rules Stats Wind Profile Meteogram Temp Stats Airport Information Weather charts Add Link Nearby VenuesMetar ALERT Operation Metar Decoded Social comments

AIRNAV info for KBKL